Time;durP1;ratioP1;P1;durP2;ratioP2;P2;SDS_P1;SDS_P2;PMS_P1;PMS_P2;Temp;Humidity;BMP_temperature;BMP_pressure;BME280_temperature;BME280_humidity;BME280_pressure;Samples;Min_cycle;Max_cycle;Signal;HPM_P1;HPM_P2
2022/05/28 00:02:15;;;;;;;10.05;1.15;;;12.70;99.90;;;;;;5054909;28;20548;-69
2022/05/28 00:04:41;;;;;;;6.00;1.30;;;12.60;99.90;;;;;;5055093;28;20135;-69
2022/05/28 00:07:08;;;;;;;9.20;2.05;;;12.70;99.90;;;;;;5074520;28;20477;-69
2022/05/28 00:09:34;;;;;;;5.60;0.93;;;12.80;99.90;;;;;;5059115;28;20562;-69
2022/05/28 00:12:00;;;;;;;12.02;1.02;;;12.80;99.90;;;;;;5076727;28;20044;-69
2022/05/28 00:14:25;;;;;;;9.73;1.40;;;12.80;99.90;;;;;;5076645;28;20128;-69
2022/05/28 00:16:51;;;;;;;9.07;2.28;;;12.60;99.90;;;;;;5058921;28;20048;-70
2022/05/28 00:19:17;;;;;;;9.68;1.55;;;12.60;99.90;;;;;;5076719;28;20139;-69
2022/05/28 00:21:43;;;;;;;14.93;1.65;;;12.50;99.90;;;;;;5076737;28;20484;-69
2022/05/28 00:24:11;;;;;;;12.05;1.30;;;12.50;99.90;;;;;;5042445;28;20052;-69
2022/05/28 00:26:37;;;;;;;12.55;1.45;;;12.60;99.90;;;;;;5076868;28;20056;-69
2022/05/28 00:29:03;;;;;;;16.05;1.63;;;12.60;99.90;;;;;;5058504;28;20393;-69
2022/05/28 00:31:28;;;;;;;14.88;1.85;;;12.70;99.90;;;;;;5058017;28;20369;-70
2022/05/28 00:33:54;;;;;;;11.35;2.15;;;12.70;99.90;;;;;;5076335;28;20396;-69
2022/05/28 00:36:20;;;;;;;13.02;1.45;;;12.60;99.90;;;;;;5076156;28;20524;-70
2022/05/28 00:38:46;;;;;;;8.70;1.23;;;12.50;99.90;;;;;;5058716;28;20060;-69
2022/05/28 00:41:13;;;;;;;16.45;1.48;;;12.50;99.90;;;;;;5076108;28;20040;-69
2022/05/28 00:43:40;;;;;;;14.93;1.55;;;12.50;99.90;;;;;;5076111;28;20067;-69
2022/05/28 00:46:26;;;;;;;13.48;1.67;;;12.40;99.90;;;;;;5041758;28;20063;-69
2022/05/28 00:49:01;;;;;;;11.93;1.20;;;12.30;99.90;;;;;;5076698;28;20435;-69
2022/05/28 00:51:30;;;;;;;11.18;1.42;;;12.40;99.90;;;;;;5075729;28;20036;-69
2022/05/28 00:54:02;;;;;;;11.32;1.33;;;12.50;99.90;;;;;;5075968;28;20101;-69
2022/05/28 00:56:28;;;;;;;16.27;1.70;;;12.50;99.90;;;;;;5075812;28;20088;-70
2022/05/28 00:58:55;;;;;;;11.00;1.63;;;12.30;99.90;;;;;;5075890;28;20044;-69
2022/05/28 01:01:29;;;;;;;11.82;1.40;;;12.30;99.90;;;;;;5075506;28;20481;-69
2022/05/28 01:04:07;;;;;;;11.80;1.20;;;12.20;99.90;;;;;;5075640;28;20051;-69
2022/05/28 01:06:36;;;;;;;13.20;1.70;;;12.20;99.90;;;;;;5075841;28;20044;-69
2022/05/28 01:09:12;;;;;;;12.15;1.23;;;12.10;99.90;;;;;;5041202;28;20088;-70
2022/05/28 01:11:49;;;;;;;7.75;1.10;;;12.20;99.90;;;;;;5076064;28;20452;-69
2022/05/28 01:14:20;;;;;;;17.98;1.98;;;12.10;99.90;;;;;;5058185;28;20063;-69
2022/05/28 01:16:53;;;;;;;10.77;1.33;;;12.10;99.90;;;;;;5075606;28;20049;-69
2022/05/28 01:19:47;;;;;;;11.13;1.50;;;12.10;99.90;;;;;;5074770;28;20051;-69
2022/05/28 01:22:27;;;;;;;13.38;1.23;;;12.00;99.90;;;;;;5075645;28;20093;-69
2022/05/28 01:25:31;;;;;;;10.88;1.40;;;11.90;99.90;;;;;;5057882;28;20516;-70
2022/05/28 01:28:13;;;;;;;16.33;1.70;;;11.90;99.90;;;;;;5061108;28;20139;-69
2022/05/28 01:30:41;;;;;;;13.70;1.65;;;11.90;99.90;;;;;;5075120;28;20123;-69
2022/05/28 01:33:09;;;;;;;10.80;1.83;;;11.90;99.90;;;;;;5074862;28;20048;-69
2022/05/28 01:35:36;;;;;;;12.85;1.90;;;12.00;99.90;;;;;;5075321;28;20051;-69
2022/05/28 01:38:04;;;;;;;5.25;1.10;;;11.90;99.90;;;;;;5053870;28;20053;-69
2022/05/28 01:40:32;;;;;;;11.63;1.30;;;11.90;99.90;;;;;;5054172;28;20462;-69
2022/05/28 01:43:03;;;;;;;11.38;1.75;;;11.80;99.90;;;;;;5055276;28;20048;-69
2022/05/28 01:45:31;;;;;;;11.52;1.52;;;11.80;99.90;;;;;;5055475;28;20055;-69
2022/05/28 01:48:00;;;;;;;11.60;1.40;;;11.80;99.90;;;;;;5053840;28;20080;-69
2022/05/28 01:50:27;;;;;;;10.30;1.20;;;11.80;99.90;;;;;;5054927;28;20098;-69
2022/05/28 01:52:53;;;;;;;9.80;1.40;;;11.80;99.90;;;;;;5054557;28;20037;-69
2022/05/28 01:55:22;;;;;;;10.98;1.30;;;11.80;99.90;;;;;;5054794;28;20057;-69
2022/05/28 01:57:48;;;;;;;10.93;1.38;;;11.80;99.90;;;;;;5054737;28;20075;-69
2022/05/28 02:00:14;;;;;;;11.90;1.40;;;11.90;99.90;;;;;;5054736;28;20037;-69
2022/05/28 02:02:40;;;;;;;22.25;2.13;;;11.80;99.90;;;;;;5054590;28;20041;-69
2022/05/28 02:05:06;;;;;;;14.75;1.55;;;11.70;99.90;;;;;;5054474;28;20417;-69
2022/05/28 02:07:32;;;;;;;13.82;1.50;;;11.70;99.90;;;;;;5053664;28;20053;-70
2022/05/28 02:10:03;;;;;;;9.57;1.70;;;11.60;99.90;;;;;;5054389;28;20043;-69
2022/05/28 02:12:40;;;;;;;12.50;1.60;;;11.70;99.90;;;;;;5054434;28;20041;-69
2022/05/28 02:15:15;;;;;;;18.52;2.08;;;11.80;99.90;;;;;;5053739;28;20045;-69
2022/05/28 02:17:53;;;;;;;19.45;2.15;;;11.80;99.90;;;;;;5054324;28;20056;-69
2022/05/28 02:20:32;;;;;;;16.50;2.65;;;11.80;99.90;;;;;;5054422;28;20037;-69
2022/05/28 02:23:04;;;;;;;21.58;2.00;;;11.90;99.90;;;;;;5053353;28;20378;-69
2022/05/28 02:25:37;;;;;;;12.60;1.50;;;11.80;99.90;;;;;;5054405;28;20056;-69
2022/05/28 02:28:05;;;;;;;14.95;1.88;;;11.80;99.90;;;;;;5054198;28;20523;-69
2022/05/28 02:30:32;;;;;;;13.65;1.58;;;11.70;99.90;;;;;;5053032;28;20498;-69
2022/05/28 02:33:03;;;;;;;13.60;1.80;;;11.70;99.90;;;;;;5053767;28;20048;-69
2022/05/28 02:35:29;;;;;;;11.10;1.67;;;11.70;99.90;;;;;;5053969;28;20127;-70
2022/05/28 02:37:54;;;;;;;11.73;1.77;;;11.90;99.90;;;;;;5036203;28;20199;-69
2022/05/28 02:40:20;;;;;;;17.50;2.03;;;12.00;99.90;;;;;;5053828;28;20049;-69
2022/05/28 02:42:46;;;;;;;13.63;1.33;;;11.90;99.90;;;;;;5054090;28;20482;-70
2022/05/28 02:45:12;;;;;;;17.98;1.98;;;12.00;99.90;;;;;;5053669;28;20048;-70
2022/05/28 02:47:37;;;;;;;21.50;2.22;;;12.00;99.90;;;;;;5053918;28;20099;-69
2022/05/28 02:50:04;;;;;;;14.23;2.08;;;12.00;99.90;;;;;;5052663;28;20148;-70
2022/05/28 02:52:29;;;;;;;18.27;2.05;;;12.10;99.90;;;;;;5053645;28;20465;-70
2022/05/28 02:54:55;;;;;;;14.63;1.80;;;12.10;99.90;;;;;;5052569;28;20081;-69
2022/05/28 02:57:20;;;;;;;14.70;1.70;;;12.20;99.90;;;;;;5052669;28;20049;-72
2022/05/28 02:59:46;;;;;;;14.65;1.67;;;12.10;99.90;;;;;;5053448;28;20107;-69
2022/05/28 03:02:12;;;;;;;16.20;2.70;;;11.90;99.90;;;;;;5052187;28;20136;-69
2022/05/28 03:04:37;;;;;;;18.75;2.85;;;11.90;99.90;;;;;;5052488;28;20063;-69
2022/05/28 03:07:03;;;;;;;20.45;2.17;;;12.00;99.90;;;;;;5052443;28;20390;-69
2022/05/28 03:09:29;;;;;;;15.52;2.28;;;11.90;99.90;;;;;;5053568;28;20101;-70
2022/05/28 03:11:54;;;;;;;16.40;2.13;;;11.90;99.90;;;;;;5053269;28;20416;-69
2022/05/28 03:14:20;;;;;;;17.08;2.33;;;11.90;99.90;;;;;;5052429;28;20045;-69
2022/05/28 03:16:46;;;;;;;20.33;2.30;;;12.00;99.90;;;;;;5053578;28;20516;-69
2022/05/28 03:19:12;;;;;;;21.88;2.25;;;11.90;99.90;;;;;;5053336;28;20375;-69
2022/05/28 03:21:37;;;;;;;12.85;2.90;;;11.90;99.90;;;;;;5052275;28;20116;-69
2022/05/28 03:24:06;;;;;;;12.80;1.80;;;11.80;99.90;;;;;;5052107;28;20056;-69
2022/05/28 03:26:32;;;;;;;18.08;2.10;;;11.80;99.90;;;;;;5053216;28;20132;-69
2022/05/28 03:28:58;;;;;;;14.55;2.03;;;11.80;99.90;;;;;;5052979;28;20157;-69
2022/05/28 03:31:26;;;;;;;27.67;2.38;;;11.90;99.90;;;;;;5053287;28;20045;-69
2022/05/28 03:33:52;;;;;;;14.00;2.25;;;11.80;99.90;;;;;;5052259;28;20583;-69
2022/05/28 03:36:18;;;;;;;15.68;2.17;;;11.80;99.90;;;;;;5053297;28;20136;-69
2022/05/28 03:38:44;;;;;;;16.40;1.92;;;11.80;99.90;;;;;;5073031;28;20143;-69
2022/05/28 03:41:10;;;;;;;11.77;1.92;;;12.00;99.90;;;;;;5073301;28;20469;-70
2022/05/28 03:43:36;;;;;;;18.23;2.53;;;12.00;99.90;;;;;;5059653;28;20470;-69
2022/05/28 03:46:02;;;;;;;13.88;2.03;;;12.10;99.90;;;;;;5059357;28;20048;-69
2022/05/28 03:48:30;;;;;;;21.30;2.55;;;12.10;99.90;;;;;;5077723;28;20076;-69
2022/05/28 03:50:56;;;;;;;15.25;1.73;;;12.20;99.90;;;;;;5059474;28;20048;-69
2022/05/28 03:53:22;;;;;;;18.48;2.42;;;12.20;99.90;;;;;;5059247;28;20066;-69
2022/05/28 03:55:49;;;;;;;17.98;2.55;;;12.20;99.90;;;;;;5076827;28;20415;-70
2022/05/28 03:58:15;;;;;;;15.88;2.47;;;12.20;99.90;;;;;;5059516;28;20045;-69
2022/05/28 04:00:41;;;;;;;14.27;2.00;;;12.20;99.90;;;;;;5076969;28;20045;-69
2022/05/28 04:03:07;;;;;;;17.40;2.75;;;12.20;99.90;;;;;;5076715;28;20056;-69
2022/05/28 04:05:35;;;;;;;14.02;2.50;;;12.20;99.90;;;;;;5076932;28;20048;-69
2022/05/28 04:08:01;;;;;;;22.27;2.40;;;12.10;99.90;;;;;;5059215;28;20101;-69
2022/05/28 04:10:26;;;;;;;20.23;2.30;;;12.10;99.90;;;;;;5058969;28;20396;-70
2022/05/28 04:12:52;;;;;;;16.48;2.65;;;12.10;99.90;;;;;;5076661;28;20683;-69
2022/05/28 04:15:18;;;;;;;21.13;2.10;;;12.10;99.90;;;;;;5059551;28;20451;-70
2022/05/28 04:17:43;;;;;;;15.60;1.85;;;11.90;99.90;;;;;;5059021;28;20056;-69
2022/05/28 04:20:11;;;;;;;18.08;2.42;;;11.80;99.90;;;;;;5069400;28;20072;-70
2022/05/28 04:22:37;;;;;;;18.23;2.15;;;11.90;99.90;;;;;;5055048;28;20624;-70
2022/05/28 04:25:03;;;;;;;18.08;2.03;;;11.90;99.90;;;;;;5055651;28;20146;-70
2022/05/28 04:27:29;;;;;;;18.08;2.40;;;12.10;99.90;;;;;;5056713;28;20057;-69
2022/05/28 04:29:55;;;;;;;18.30;2.42;;;12.10;99.90;;;;;;5056481;28;20099;-69
2022/05/28 04:32:21;;;;;;;13.82;1.80;;;12.20;99.90;;;;;;5038483;28;20049;-69
2022/05/28 04:34:46;;;;;;;22.33;2.70;;;12.20;99.90;;;;;;5038650;28;20128;-69
2022/05/28 04:37:12;;;;;;;14.80;2.45;;;12.20;99.90;;;;;;5038610;28;20500;-69
2022/05/28 04:39:38;;;;;;;15.27;2.10;;;12.30;99.90;;;;;;5038384;28;20492;-69
2022/05/28 04:42:04;;;;;;;16.00;2.20;;;12.30;99.90;;;;;;5038965;28;20082;-69
2022/05/28 04:44:30;;;;;;;14.02;2.10;;;12.40;99.90;;;;;;5056049;28;20053;-69
2022/05/28 04:46:55;;;;;;;14.57;2.25;;;12.50;99.90;;;;;;5056044;28;20045;-70
2022/05/28 04:49:21;;;;;;;13.90;2.22;;;12.40;99.90;;;;;;5056239;28;20106;-69
2022/05/28 04:51:48;;;;;;;16.33;2.08;;;12.60;99.90;;;;;;5055975;28;20056;-69
2022/05/28 04:54:13;;;;;;;15.50;2.35;;;12.70;99.90;;;;;;5054599;28;20084;-70
2022/05/28 04:56:39;;;;;;;23.08;2.40;;;12.70;99.90;;;;;;5055741;28;20095;-70
2022/05/28 04:59:05;;;;;;;21.05;2.30;;;12.80;99.90;;;;;;5055966;28;20049;-69
2022/05/28 05:01:30;;;;;;;14.32;2.08;;;12.70;99.90;;;;;;5055306;28;20052;-69
2022/05/28 05:03:56;;;;;;;20.55;2.60;;;12.60;99.90;;;;;;5038327;28;20048;-69
2022/05/28 05:06:21;;;;;;;12.35;2.45;;;12.60;99.90;;;;;;5038041;28;20412;-69
2022/05/28 05:08:47;;;;;;;14.55;2.25;;;12.50;99.90;;;;;;5055812;28;20148;-69
2022/05/28 05:11:13;;;;;;;22.27;2.60;;;12.50;99.90;;;;;;5037520;28;20048;-69
2022/05/28 05:13:39;;;;;;;22.20;2.83;;;12.50;99.90;;;;;;5037910;28;20044;-69
2022/05/28 05:16:22;;;;;;;19.92;2.50;;;12.60;99.90;;;;;;5055519;28;20107;-70
2022/05/28 05:18:48;;;;;;;11.88;1.75;;;12.80;99.90;;;;;;5055375;28;20051;-70
2022/05/28 05:21:14;;;;;;;18.27;2.40;;;13.00;99.90;;;;;;5038048;28;20049;-69
2022/05/28 05:23:41;;;;;;;18.27;2.15;;;13.10;99.90;;;;;;5037608;28;20060;-70
2022/05/28 05:26:16;;;;;;;11.43;2.40;;;13.10;99.90;;;;;;5055534;28;20045;-69
2022/05/28 05:28:42;;;;;;;13.93;2.25;;;13.10;99.90;;;;;;5055251;28;20053;-69
2022/05/28 05:31:08;;;;;;;10.95;1.92;;;13.30;99.90;;;;;;5054865;28;20037;-69
2022/05/28 05:33:34;;;;;;;15.40;2.03;;;13.30;99.90;;;;;;5055260;28;20045;-69
2022/05/28 05:36:00;;;;;;;12.65;1.92;;;13.30;99.90;;;;;;5037246;28;20103;-70
2022/05/28 05:38:26;;;;;;;15.93;2.45;;;13.40;99.90;;;;;;5055373;28;20063;-69
2022/05/28 05:40:52;;;;;;;15.45;2.08;;;13.50;99.90;;;;;;5037528;28;20505;-69
2022/05/28 05:43:19;;;;;;;15.00;2.47;;;13.50;99.90;;;;;;5055248;28;20131;-69
2022/05/28 05:45:56;;;;;;;12.98;1.92;;;13.20;99.90;;;;;;5054857;28;20045;-69
2022/05/28 05:48:22;;;;;;;10.95;2.08;;;13.20;99.90;;;;;;5055194;28;20072;-70
2022/05/28 05:50:49;;;;;;;20.60;2.20;;;13.30;99.90;;;;;;5054557;28;20041;-69
2022/05/28 05:53:15;;;;;;;20.00;2.47;;;13.30;99.90;;;;;;5037661;28;20520;-69
2022/05/28 05:55:41;;;;;;;13.65;2.10;;;13.20;99.90;;;;;;5055360;28;20053;-69
2022/05/28 05:58:07;;;;;;;15.98;2.08;;;13.30;99.90;;;;;;5054182;28;20053;-69
2022/05/28 06:00:32;;;;;;;19.23;2.38;;;13.50;99.90;;;;;;5037143;28;20044;-69
2022/05/28 06:02:58;;;;;;;15.90;2.22;;;13.70;99.90;;;;;;5054054;28;20087;-70
2022/05/28 06:05:24;;;;;;;17.98;2.10;;;13.90;99.90;;;;;;5036583;28;20393;-69
2022/05/28 06:07:49;;;;;;;13.30;2.13;;;13.80;99.90;;;;;;5037009;28;20052;-69
2022/05/28 06:10:16;;;;;;;15.15;2.38;;;13.90;99.90;;;;;;5054866;28;20044;-69
2022/05/28 06:12:42;;;;;;;23.15;2.60;;;14.00;99.90;;;;;;5054313;28;20398;-69
2022/05/28 06:15:08;;;;;;;20.30;3.22;;;13.80;99.90;;;;;;5036886;28;20143;-70
2022/05/28 06:17:35;;;;;;;17.55;2.60;;;13.80;99.90;;;;;;5037027;28;20119;-70
2022/05/28 06:20:06;;;;;;;17.17;1.95;;;13.70;99.90;;;;;;5037145;28;20486;-69
2022/05/28 06:22:31;;;;;;;22.92;2.63;;;13.70;99.90;;;;;;5054608;28;20449;-69
2022/05/28 06:24:57;;;;;;;14.15;1.90;;;13.70;99.90;;;;;;5020421;28;20087;-69
2022/05/28 06:27:23;;;;;;;16.17;2.65;;;13.70;99.90;;;;;;5054328;28;20064;-69
2022/05/28 06:29:48;;;;;;;21.20;2.95;;;13.50;99.90;;;;;;5053924;28;20056;-69
2022/05/28 06:32:14;;;;;;;13.75;2.25;;;13.40;99.90;;;;;;5053532;28;20037;-69
2022/05/28 06:34:40;;;;;;;7.10;1.85;;;13.20;99.90;;;;;;5036624;28;20056;-69
2022/05/28 06:37:10;;;;;;;10.98;1.80;;;13.10;99.90;;;;;;5053686;28;20056;-69
2022/05/28 06:39:36;;;;;;;8.60;1.67;;;12.90;99.90;;;;;;5054153;28;20055;-69
2022/05/28 06:42:03;;;;;;;11.50;1.73;;;13.00;99.90;;;;;;5019797;28;20508;-69
2022/05/28 06:44:29;;;;;;;16.63;2.17;;;13.10;99.90;;;;;;5053923;28;20092;-69
2022/05/28 06:46:55;;;;;;;14.25;1.30;;;13.10;99.90;;;;;;5053600;28;20053;-70
2022/05/28 06:49:20;;;;;;;10.05;1.75;;;13.30;99.90;;;;;;5028742;28;20055;-69
2022/05/28 06:51:47;;;;;;;16.20;1.83;;;13.30;99.90;;;;;;5063109;28;20048;-69
2022/05/28 06:54:13;;;;;;;11.93;2.17;;;13.30;99.90;;;;;;5062190;28;20134;-69
2022/05/28 06:56:39;;;;;;;13.45;1.63;;;13.40;99.90;;;;;;5057772;28;20055;-70
2022/05/28 06:59:04;;;;;;;16.70;1.85;;;13.50;99.90;;;;;;5053718;28;20045;-69
2022/05/28 07:01:30;;;;;;;14.65;2.05;;;13.40;99.90;;;;;;5035483;28;20052;-69
2022/05/28 07:03:56;;;;;;;16.00;2.22;;;13.50;99.90;;;;;;5035916;28;20052;-70
2022/05/28 07:06:22;;;;;;;12.20;2.00;;;13.50;99.90;;;;;;5054240;28;20448;-73
2022/05/28 07:08:48;;;;;;;17.92;2.50;;;13.50;99.90;;;;;;5053451;28;20402;-71
2022/05/28 07:11:14;;;;;;;16.05;2.70;;;13.50;99.90;;;;;;5053569;28;20048;-74
2022/05/28 07:13:41;;;;;;;12.85;1.80;;;13.40;99.90;;;;;;5053344;28;20088;-71
2022/05/28 07:16:08;;;;;;;14.82;2.38;;;13.40;99.90;;;;;;5052701;28;20128;-72
2022/05/28 07:18:37;;;;;;;13.02;2.08;;;13.40;99.90;;;;;;5053852;28;20045;-71
2022/05/28 07:21:04;;;;;;;17.70;3.03;;;13.50;99.90;;;;;;5053288;28;20091;-71
2022/05/28 07:23:31;;;;;;;11.13;1.80;;;13.60;99.90;;;;;;5053410;28;20182;-71
2022/05/28 07:25:58;;;;;;;14.77;2.35;;;13.70;99.90;;;;;;5053196;28;20049;-74
2022/05/28 07:28:33;;;;;;;14.27;2.17;;;13.80;99.90;;;;;;5055051;28;20048;-74
2022/05/28 07:31:01;;;;;;;17.52;2.25;;;13.90;99.90;;;;;;5057597;28;20041;-70
2022/05/28 07:33:29;;;;;;;14.52;2.40;;;13.80;99.90;;;;;;5052924;28;20504;-71
2022/05/28 07:35:56;;;;;;;15.85;2.40;;;13.80;99.90;;;;;;5053372;28;20387;-72
2022/05/28 07:38:23;;;;;;;18.95;2.50;;;13.90;99.90;;;;;;5052849;28;20115;-72
2022/05/28 07:40:50;;;;;;;21.40;2.50;;;14.10;99.90;;;;;;5053394;28;20092;-72
2022/05/28 07:43:16;;;;;;;15.38;2.35;;;14.40;99.90;;;;;;5052844;28;20091;-72
2022/05/28 07:45:43;;;;;;;17.52;2.90;;;14.50;99.90;;;;;;5053230;28;20049;-72
2022/05/28 07:48:10;;;;;;;22.60;2.50;;;14.40;99.90;;;;;;5035489;28;20469;-72
2022/05/28 07:50:36;;;;;;;18.25;2.70;;;14.40;99.90;;;;;;5052956;28;20577;-76
2022/05/28 07:53:02;;;;;;;16.50;3.10;;;14.30;99.90;;;;;;5035106;28;20149;-72
2022/05/28 07:55:28;;;;;;;29.23;2.85;;;14.40;99.90;;;;;;5053032;28;20040;-72
2022/05/28 07:57:54;;;;;;;20.35;2.60;;;14.20;99.90;;;;;;5035578;28;20112;-72
2022/05/28 08:00:20;;;;;;;16.63;2.50;;;14.00;99.90;;;;;;5052985;28;20497;-72
2022/05/28 08:02:45;;;;;;;17.02;2.50;;;14.00;99.90;;;;;;5052794;28;20091;-71
2022/05/28 08:05:11;;;;;;;21.73;2.70;;;14.10;99.90;;;;;;5052982;28;20456;-72
2022/05/28 08:07:37;;;;;;;24.63;3.08;;;14.30;99.90;;;;;;5035236;28;20397;-72
2022/05/28 08:10:03;;;;;;;17.83;3.05;;;14.70;99.90;;;;;;5035218;28;20057;-72
2022/05/28 08:12:29;;;;;;;17.02;1.90;;;14.60;99.90;;;;;;5034716;28;20386;-73
2022/05/28 08:14:55;;;;;;;13.65;2.63;;;14.50;99.90;;;;;;5053018;28;20056;-72
2022/05/28 08:17:21;;;;;;;11.05;2.30;;;14.50;99.90;;;;;;5052837;28;20053;-72
2022/05/28 08:19:47;;;;;;;16.98;2.40;;;14.40;99.90;;;;;;5035347;28;20053;-72
2022/05/28 08:24:57;;;;;;;16.55;2.20;;;14.70;99.90;;;;;;5052618;28;20048;-73
2022/05/28 08:27:23;;;;;;;15.30;2.28;;;14.90;99.90;;;;;;5053239;28;20047;-73
2022/05/28 08:29:49;;;;;;;16.00;2.17;;;15.10;99.90;;;;;;5056460;28;20135;-71
2022/05/28 08:32:18;;;;;;;16.48;2.08;;;15.20;99.90;;;;;;5056381;28;20045;-71
2022/05/28 08:34:44;;;;;;;9.30;1.65;;;15.40;99.90;;;;;;5056407;28;20049;-73
2022/05/28 08:37:11;;;;;;;12.75;1.50;;;15.40;99.50;;;;;;5018808;28;20053;-69
2022/05/28 08:39:38;;;;;;;13.35;1.98;;;15.40;99.70;;;;;;5036079;28;20096;-68
2022/05/28 08:42:05;;;;;;;10.95;1.83;;;15.60;99.80;;;;;;5035565;28;20444;-71
2022/05/28 08:44:35;;;;;;;12.75;1.83;;;16.10;99.90;;;;;;5035178;28;20056;-70
2022/05/28 08:47:17;;;;;;;14.95;2.08;;;16.30;99.30;;;;;;5036154;28;20049;-72
2022/05/28 08:49:45;;;;;;;11.35;1.55;;;16.00;98.80;;;;;;5035193;28;20041;-71
2022/05/28 08:52:18;;;;;;;17.88;1.95;;;15.60;99.20;;;;;;5035812;28;20497;-71
2022/05/28 08:54:59;;;;;;;13.82;1.60;;;15.40;99.60;;;;;;5036238;28;20053;-71
2022/05/28 08:58:03;;;;;;;17.33;2.10;;;15.30;99.90;;;;;;5035914;28;20055;-71
2022/05/28 09:00:44;;;;;;;13.02;1.67;;;15.20;99.90;;;;;;5034866;28;20049;-70
2022/05/28 09:03:18;;;;;;;11.60;1.80;;;15.20;99.90;;;;;;5035691;28;20046;-71
2022/05/28 09:05:57;;;;;;;12.90;2.03;;;15.00;99.90;;;;;;5034810;28;20045;-68
2022/05/28 09:08:49;;;;;;;14.65;2.00;;;14.90;99.90;;;;;;5035175;28;20132;-72
2022/05/28 09:11:21;;;;;;;20.67;2.50;;;14.90;99.90;;;;;;5035942;28;20046;-73
2022/05/28 09:13:49;;;;;;;15.40;2.30;;;15.20;99.90;;;;;;5035079;28;20060;-74
2022/05/28 09:16:42;;;;;;;19.25;2.08;;;15.30;99.90;;;;;;5035774;28;20053;-74
2022/05/28 09:19:15;;;;;;;15.25;2.17;;;15.30;99.90;;;;;;5035956;28;20068;-74
2022/05/28 09:21:41;;;;;;;16.45;2.08;;;15.10;99.90;;;;;;5035971;28;20456;-74
2022/05/28 09:24:16;;;;;;;14.38;1.85;;;14.80;99.90;;;;;;5034181;28;20096;-74
2022/05/28 09:27:04;;;;;;;12.57;1.77;;;14.50;99.90;;;;;;5035500;28;20045;-77
2022/05/28 09:29:39;;;;;;;15.35;2.20;;;14.40;99.90;;;;;;5023849;28;20108;-74
2022/05/28 09:32:04;;;;;;;13.88;2.00;;;14.50;99.90;;;;;;5034910;28;20116;-74
2022/05/28 09:34:30;;;;;;;14.18;2.45;;;14.60;99.90;;;;;;5035523;28;20128;-75
2022/05/28 09:37:25;;;;;;;20.10;3.10;;;14.60;99.90;;;;;;5037917;28;20457;-73
2022/05/28 09:40:11;;;;;;;18.60;2.40;;;15.00;99.90;;;;;;5006509;28;20140;-72
2022/05/28 09:43:02;;;;;;;14.40;2.70;;;15.30;99.90;;;;;;5023837;28;20067;-71
2022/05/28 09:45:52;;;;;;;14.77;2.45;;;15.90;99.90;;;;;;5055069;28;20057;-72
2022/05/28 09:48:23;;;;;;;15.73;1.98;;;16.30;99.90;;;;;;5054736;28;20497;-73
2022/05/28 09:50:49;;;;;;;16.67;2.58;;;16.70;99.90;;;;;;5055366;28;20049;-72
2022/05/28 09:56:26;;;;;;;14.68;2.10;;;15.60;99.90;;;;;;5054811;28;20406;-72
2022/05/28 09:58:52;;;;;;;14.82;2.42;;;15.50;99.90;;;;;;5054641;28;20402;-72
2022/05/28 10:01:21;;;;;;;13.63;2.00;;;15.50;99.90;;;;;;5054855;28;20041;-73
2022/05/28 10:06:43;;;;;;;15.13;2.03;;;15.60;99.90;;;;;;5054853;28;20523;-72
2022/05/28 10:09:19;;;;;;;8.18;1.50;;;16.10;99.90;;;;;;5054429;28;20478;-72
2022/05/28 10:11:56;;;;;;;11.65;2.08;;;16.30;99.20;;;;;;5054434;28;20098;-72
2022/05/28 10:14:25;;;;;;;;;;;16.30;99.00;;;;;;5055435;28;20048;-72
2022/05/28 10:16:57;;;;;;;15.27;1.60;;;16.40;98.90;;;;;;5054436;28;20015;-72
2022/05/28 10:19:40;;;;;;;17.98;2.28;;;15.90;99.00;;;;;;5020117;28;20045;-72
2022/05/28 10:22:14;;;;;;;14.45;2.08;;;15.80;99.50;;;;;;5036890;28;20494;-72
2022/05/28 10:24:46;;;;;;;16.90;2.10;;;15.90;99.50;;;;;;5054267;28;20052;-72
2022/05/28 10:27:34;;;;;;;13.90;1.83;;;15.80;99.40;;;;;;5036537;28;20059;-73
2022/05/28 10:30:09;;;;;;;10.13;2.20;;;15.50;99.50;;;;;;5054451;28;20075;-72
2022/05/28 10:32:44;;;;;;;11.95;1.58;;;15.50;99.30;;;;;;5054147;28;20045;-72
2022/05/28 10:35:15;;;;;;;7.53;1.08;;;15.40;98.80;;;;;;5054576;28;20130;-73
2022/05/28 10:37:42;;;;;;;5.63;1.30;;;15.10;98.60;;;;;;5053984;28;20064;-71
2022/05/28 10:40:16;;;;;;;11.50;1.33;;;15.00;98.20;;;;;;5054193;28;20049;-69
2022/05/28 10:42:43;;;;;;;8.35;1.02;;;15.20;98.30;;;;;;5036032;28;20394;-71
2022/05/28 10:45:09;;;;;;;10.00;1.00;;;15.40;98.10;;;;;;5036294;28;20504;-70
2022/05/28 10:48:05;;;;;;;6.97;1.27;;;16.00;98.10;;;;;;5054031;28;20132;-70
2022/05/28 10:50:50;;;;;;;5.47;0.95;;;16.40;98.10;;;;;;5035771;28;20124;-70
2022/05/28 10:53:58;;;;;;;9.73;1.17;;;16.30;97.60;;;;;;5053590;28;20115;-71
2022/05/28 10:56:30;;;;;;;8.55;1.00;;;16.40;98.40;;;;;;5025623;28;20060;-71
2022/05/28 10:59:30;;;;;;;9.57;1.20;;;16.70;97.70;;;;;;5036048;28;20187;-70
2022/05/28 11:02:05;;;;;;;11.50;1.88;;;16.70;97.80;;;;;;5053586;28;20047;-71
2022/05/28 11:04:44;;;;;;;12.88;1.90;;;16.90;98.20;;;;;;5035929;28;20048;-70
2022/05/28 11:07:51;;;;;;;9.95;1.63;;;16.80;98.20;;;;;;5054179;28;20045;-72
2022/05/28 11:10:46;;;;;;;15.20;1.63;;;16.30;97.50;;;;;;4958045;28;20567;-71
2022/05/28 11:13:32;;;;;;;10.20;1.42;;;15.80;97.90;;;;;;4972526;28;20046;-71
2022/05/28 11:16:52;;;;;;;11.40;1.63;;;16.20;98.70;;;;;;5037588;28;20061;-71
2022/05/28 11:19:44;;;;;;;9.52;1.50;;;16.70;98.70;;;;;;5038078;28;20061;-71
2022/05/28 11:22:28;;;;;;;15.55;1.90;;;16.80;98.10;;;;;;5012630;28;20379;-72
2022/05/28 11:25:10;;;;;;;11.98;1.70;;;16.40;98.20;;;;;;5053507;28;20057;-70
2022/05/28 11:28:08;;;;;;;14.48;1.80;;;16.40;98.30;;;;;;5053575;28;20060;-71
2022/05/28 11:30:42;;;;;;;12.13;1.40;;;16.40;98.10;;;;;;5053153;28;20048;-71
2022/05/28 11:33:19;;;;;;;10.70;2.03;;;16.70;98.10;;;;;;5052818;28;20041;-71
2022/05/28 11:35:58;;;;;;;10.73;1.80;;;16.50;98.10;;;;;;5053692;28;20053;-67
2022/05/28 11:38:42;;;;;;;9.73;1.55;;;16.40;98.30;;;;;;5035429;28;20470;-71
2022/05/28 11:41:46;;;;;;;7.68;1.52;;;16.80;98.30;;;;;;5053139;28;20417;-71
2022/05/28 11:44:15;;;;;;;13.00;1.98;;;17.30;98.80;;;;;;5022282;28;20053;-71
2022/05/28 11:46:44;;;;;;;14.15;2.10;;;17.40;98.30;;;;;;5052962;28;20048;-71
2022/05/28 11:52:18;;;;;;;14.90;2.47;;;16.00;98.70;;;;;;5053170;28;20444;-71
2022/05/28 11:54:51;;;;;;;16.73;2.80;;;15.90;99.90;;;;;;5054746;28;20426;-71
2022/05/28 11:57:31;;;;;;;13.88;2.35;;;15.70;99.90;;;;;;5059561;28;20061;-72
2022/05/28 11:59:58;;;;;;;10.65;2.03;;;15.60;99.90;;;;;;5051174;28;20456;-71
2022/05/28 12:02:28;;;;;;;12.30;2.45;;;15.50;99.90;;;;;;5052784;28;20047;-71
2022/05/28 12:04:53;;;;;;;15.70;2.17;;;15.30;99.90;;;;;;5039057;28;20048;-72
2022/05/28 12:07:40;;;;;;;15.80;2.35;;;15.20;99.90;;;;;;5057002;28;20044;-72
2022/05/28 12:10:11;;;;;;;17.88;2.88;;;15.10;99.90;;;;;;5056774;28;20045;-72
2022/05/28 12:12:58;;;;;;;10.57;1.83;;;15.20;99.90;;;;;;5056790;28;20049;-78
2022/05/28 12:15:29;;;;;;;16.58;2.22;;;15.60;99.90;;;;;;5039266;28;20049;-77
2022/05/28 12:18:01;;;;;;;19.38;2.15;;;15.60;99.90;;;;;;5038992;28;20478;-78
2022/05/28 12:20:36;;;;;;;19.90;2.72;;;15.60;99.90;;;;;;5038973;28;20084;-81
2022/05/28 12:23:04;;;;;;;21.30;2.28;;;15.40;99.90;;;;;;5039267;28;20089;-81
2022/05/28 12:25:35;;;;;;;15.95;2.20;;;15.70;99.90;;;;;;5038915;28;20086;-72
2022/05/28 12:28:11;;;;;;;12.65;2.05;;;15.80;99.90;;;;;;5056637;28;20101;-72
2022/05/28 12:30:45;;;;;;;13.05;1.42;;;16.30;99.80;;;;;;5038629;28;20055;-73
2022/05/28 12:33:31;;;;;;;8.77;1.88;;;16.70;99.80;;;;;;5055817;28;20048;-73
2022/05/28 12:35:59;;;;;;;12.73;1.70;;;17.40;99.80;;;;;;5056533;28;20045;-73
2022/05/28 12:38:43;;;;;;;11.55;2.10;;;17.40;98.50;;;;;;5056019;28;20406;-72
2022/05/28 12:41:25;;;;;;;13.45;1.73;;;17.50;99.00;;;;;;5038968;28;20084;-72
2022/05/28 12:43:55;;;;;;;15.20;1.98;;;17.70;98.80;;;;;;5056144;28;20567;-72
2022/05/28 12:46:42;;;;;;;10.50;1.92;;;17.20;98.70;;;;;;5056199;28;20458;-72
2022/05/28 12:49:19;;;;;;;14.68;2.20;;;17.30;98.90;;;;;;5056468;28;20048;-72
2022/05/28 12:51:57;;;;;;;15.38;1.70;;;17.60;98.60;;;;;;5038189;28;20433;-72
2022/05/28 12:54:25;;;;;;;12.77;1.77;;;17.50;98.60;;;;;;5038642;28;20494;-72
2022/05/28 12:57:02;;;;;;;8.73;1.58;;;17.70;98.30;;;;;;5055937;28;20087;-72
2022/05/28 12:59:33;;;;;;;8.18;1.30;;;17.80;98.20;;;;;;5055956;28;20426;-73
2022/05/28 13:02:05;;;;;;;9.48;1.40;;;18.30;98.30;;;;;;5055640;28;20440;-73
2022/05/28 13:04:39;;;;;;;12.45;1.90;;;18.80;98.10;;;;;;5055735;28;20052;-73
2022/05/28 13:07:13;;;;;;;9.23;1.60;;;18.60;98.40;;;;;;5055908;28;20049;-73
2022/05/28 13:09:40;;;;;;;11.18;1.63;;;18.00;98.30;;;;;;5038281;28;20049;-74